createdAt,value
2018-05-24T00:00:31.698Z,0.00
2018-05-24T00:01:31.634Z,0.00
2018-05-24T00:02:31.572Z,0.00
2018-05-24T00:03:31.514Z,0.00
2018-05-24T00:04:31.450Z,0.00
2018-05-24T00:05:31.391Z,0.00
2018-05-24T00:06:31.410Z,0.00
2018-05-24T00:07:31.270Z,0.00
2018-05-24T00:08:31.206Z,0.00
2018-05-24T00:09:31.144Z,0.00
2018-05-24T00:10:31.085Z,0.00
2018-05-24T00:11:31.023Z,0.00
2018-05-24T00:12:30.965Z,0.00
2018-05-24T00:13:30.904Z,0.00
2018-05-24T00:14:30.840Z,0.00
2018-05-24T00:15:30.781Z,0.00
2018-05-24T00:16:30.721Z,0.00
2018-05-24T00:17:30.660Z,0.00
2018-05-24T00:18:30.597Z,0.00
2018-05-24T00:19:30.536Z,0.00
2018-05-24T00:20:30.475Z,0.00
2018-05-24T00:21:30.414Z,0.00
2018-05-24T00:22:30.352Z,0.00
2018-05-24T00:23:30.291Z,0.00
2018-05-24T00:24:30.231Z,0.00
2018-05-24T00:25:30.171Z,0.00
2018-05-24T00:26:30.110Z,0.00
2018-05-24T00:27:30.055Z,0.00
2018-05-24T00:28:29.986Z,0.00
2018-05-24T00:29:29.928Z,0.00
2018-05-24T00:30:29.864Z,0.00
2018-05-24T00:31:29.807Z,0.00
2018-05-24T00:32:29.744Z,0.00
2018-05-24T00:33:29.681Z,0.00
2018-05-24T00:34:29.621Z,0.00
2018-05-24T00:35:29.560Z,0.00
2018-05-24T00:36:29.497Z,0.00
2018-05-24T00:37:29.437Z,0.00
2018-05-24T00:38:29.376Z,0.00
2018-05-24T00:39:29.313Z,0.00
2018-05-24T00:40:29.254Z,0.00
2018-05-24T00:41:29.191Z,0.00
2018-05-24T00:42:29.129Z,0.00
2018-05-24T00:43:29.068Z,0.00
2018-05-24T00:44:29.008Z,0.00
2018-05-24T00:45:28.946Z,0.00
2018-05-24T00:46:28.884Z,0.00
2018-05-24T00:47:28.823Z,0.00
2018-05-24T00:48:28.762Z,0.00
2018-05-24T00:49:28.700Z,0.00
2018-05-24T00:50:28.644Z,0.00
2018-05-24T00:51:28.578Z,0.00
2018-05-24T00:52:28.517Z,0.00
2018-05-24T00:53:28.458Z,0.00
2018-05-24T00:54:28.395Z,0.00
2018-05-24T00:55:28.334Z,0.00
2018-05-24T00:56:28.269Z,0.00
2018-05-24T00:57:28.212Z,0.00
2018-05-24T00:58:28.148Z,0.00
2018-05-24T00:59:28.092Z,0.00
2018-05-24T01:00:28.025Z,0.00
2018-05-24T01:01:27.966Z,0.00
2018-05-24T01:02:27.903Z,0.00
2018-05-24T01:03:27.842Z,0.00
2018-05-24T01:04:27.780Z,0.00
2018-05-24T01:05:27.719Z,0.00
2018-05-24T01:06:27.656Z,0.00
2018-05-24T01:07:27.595Z,0.00
2018-05-24T01:08:27.536Z,0.00
2018-05-24T01:09:27.474Z,0.00
2018-05-24T01:10:27.415Z,0.00
2018-05-24T01:11:27.352Z,0.00
2018-05-24T01:12:27.289Z,0.00
2018-05-24T01:13:27.236Z,0.00
2018-05-24T01:14:27.166Z,0.00
2018-05-24T01:15:27.104Z,0.00
2018-05-24T01:16:27.046Z,0.00
2018-05-24T01:17:26.982Z,0.00
2018-05-24T01:18:26.917Z,0.00
2018-05-24T01:19:26.856Z,0.00
2018-05-24T01:20:26.798Z,0.00
2018-05-24T01:21:26.738Z,0.00
2018-05-24T01:22:26.671Z,0.00
2018-05-24T01:23:26.615Z,0.00
2018-05-24T01:24:26.549Z,0.00
2018-05-24T01:25:26.493Z,0.00
2018-05-24T01:26:26.429Z,0.00
2018-05-24T01:27:26.367Z,0.00
2018-05-24T01:28:26.305Z,0.00
2018-05-24T01:29:26.243Z,0.00
2018-05-24T01:30:26.182Z,0.00
2018-05-24T01:31:26.118Z,0.00
2018-05-24T01:32:26.057Z,0.00
2018-05-24T01:33:26.000Z,0.00
2018-05-24T01:34:25.935Z,0.00
2018-05-24T01:35:25.872Z,0.00
2018-05-24T01:36:25.815Z,0.00
2018-05-24T01:37:25.751Z,0.00
2018-05-24T01:38:25.690Z,0.00
2018-05-24T01:39:25.626Z,0.00
2018-05-24T01:40:25.567Z,0.00
2018-05-24T01:41:25.505Z,0.00
2018-05-24T01:42:25.443Z,0.00
2018-05-24T01:43:25.382Z,0.00
2018-05-24T01:44:25.323Z,0.00
2018-05-24T01:45:25.258Z,0.00
2018-05-24T01:46:25.198Z,0.00
2018-05-24T01:47:25.135Z,0.00
2018-05-24T01:48:25.074Z,0.00
2018-05-24T01:49:25.019Z,0.00
2018-05-24T01:50:24.950Z,0.00
2018-05-24T01:51:24.889Z,0.00
2018-05-24T01:52:24.830Z,0.00
2018-05-24T01:53:24.766Z,0.00
2018-05-24T01:54:24.704Z,0.00
2018-05-24T01:55:24.645Z,0.00
2018-05-24T01:56:24.582Z,0.00
2018-05-24T01:57:24.587Z,0.00
2018-05-24T01:58:24.459Z,0.00
2018-05-24T01:59:24.399Z,0.00
2018-05-24T02:00:24.337Z,0.00
2018-05-24T02:01:24.276Z,0.00
2018-05-24T02:02:24.211Z,0.00
2018-05-24T02:03:24.153Z,0.00
2018-05-24T02:04:24.093Z,0.00
2018-05-24T02:05:24.030Z,0.00
2018-05-24T02:06:23.968Z,0.00
2018-05-24T02:07:23.908Z,0.00
2018-05-24T02:08:23.846Z,0.00
2018-05-24T02:09:23.785Z,0.00
2018-05-24T02:10:23.723Z,0.00
2018-05-24T02:11:23.661Z,0.00
2018-05-24T02:12:23.600Z,0.00
2018-05-24T02:13:23.538Z,0.00
2018-05-24T02:14:23.477Z,0.00
2018-05-24T02:15:23.415Z,0.00
2018-05-24T02:16:23.385Z,0.00
2018-05-24T02:17:23.293Z,0.00
2018-05-24T02:18:23.232Z,0.00
2018-05-24T02:19:23.169Z,0.00
2018-05-24T02:20:23.112Z,0.00
2018-05-24T02:21:23.049Z,0.00
2018-05-24T02:22:22.987Z,0.00
2018-05-24T02:23:22.942Z,0.00
2018-05-24T02:24:22.866Z,0.00
2018-05-24T02:25:22.802Z,0.00
2018-05-24T02:26:22.741Z,0.00
2018-05-24T02:27:22.680Z,0.00
2018-05-24T02:28:22.619Z,0.00
2018-05-24T02:29:22.556Z,0.00
2018-05-24T02:30:22.496Z,0.00
2018-05-24T02:31:22.432Z,0.00
2018-05-24T02:32:22.387Z,0.00
2018-05-24T02:33:22.312Z,0.00
2018-05-24T02:34:22.248Z,0.00
2018-05-24T02:35:22.188Z,0.00
2018-05-24T02:36:22.128Z,0.00
2018-05-24T02:37:22.070Z,0.00
2018-05-24T02:38:22.004Z,0.00
2018-05-24T02:39:21.941Z,0.00
2018-05-24T02:40:21.881Z,0.00
2018-05-24T02:41:21.822Z,0.00
2018-05-24T02:42:21.757Z,0.00
2018-05-24T02:43:21.696Z,0.00
2018-05-24T02:44:21.636Z,0.00
2018-05-24T02:45:21.574Z,0.00
2018-05-24T02:46:21.514Z,0.00
2018-05-24T02:47:21.453Z,0.00
2018-05-24T02:48:21.390Z,0.00
2018-05-24T02:49:21.331Z,0.00
2018-05-24T02:50:21.267Z,0.00
2018-05-24T02:51:21.208Z,0.00
2018-05-24T02:52:21.144Z,0.00
2018-05-24T02:53:21.084Z,0.00
2018-05-24T02:54:21.025Z,0.00
2018-05-24T02:55:20.968Z,0.00
2018-05-24T02:56:20.918Z,0.00
2018-05-24T02:57:20.849Z,0.00
2018-05-24T02:58:20.777Z,0.00
2018-05-24T02:59:20.728Z,0.00
2018-05-24T03:00:20.655Z,0.00
2018-05-24T03:01:20.594Z,0.00
2018-05-24T03:02:20.532Z,0.00
2018-05-24T03:03:20.472Z,0.00
2018-05-24T03:04:20.409Z,0.00
2018-05-24T03:05:20.350Z,0.00
2018-05-24T03:06:20.286Z,4.00
2018-05-24T03:07:20.228Z,4.00
2018-05-24T03:08:20.163Z,4.00
2018-05-24T03:09:20.104Z,0.00
2018-05-24T03:10:20.041Z,4.00
2018-05-24T03:11:19.993Z,4.00
2018-05-24T03:12:19.918Z,4.00
2018-05-24T03:13:19.858Z,8.00
2018-05-24T03:14:19.861Z,4.00
2018-05-24T03:15:19.735Z,8.00
2018-05-24T03:16:19.672Z,8.00
2018-05-24T03:17:19.612Z,8.00
2018-05-24T03:18:19.552Z,8.00
2018-05-24T03:19:19.491Z,12.00
2018-05-24T03:20:19.427Z,12.00
2018-05-24T03:21:19.368Z,12.00
2018-05-24T03:22:19.306Z,12.00
2018-05-24T03:23:19.245Z,16.00
2018-05-24T03:24:19.182Z,16.00
2018-05-24T03:25:19.121Z,12.00
2018-05-24T03:26:19.060Z,16.00
2018-05-24T03:27:18.999Z,20.00
2018-05-24T03:28:18.938Z,16.00
2018-05-24T03:29:18.877Z,20.00
2018-05-24T03:30:18.816Z,20.00
2018-05-24T03:31:18.753Z,24.00
2018-05-24T03:32:18.692Z,24.00
2018-05-24T03:33:18.629Z,24.00
2018-05-24T03:34:18.571Z,28.00
2018-05-24T03:35:18.552Z,28.00
2018-05-24T03:36:18.448Z,36.00
2018-05-24T03:37:18.386Z,36.00
2018-05-24T03:38:18.324Z,36.00
2018-05-24T03:39:18.273Z,40.00
2018-05-24T03:40:18.201Z,44.00
2018-05-24T03:41:18.140Z,44.00
2018-05-24T03:42:18.079Z,48.00
2018-05-24T03:43:18.017Z,56.00
2018-05-24T03:44:17.961Z,56.00
2018-05-24T03:45:17.894Z,60.00
2018-05-24T03:46:17.831Z,72.00
2018-05-24T03:47:17.772Z,76.00
2018-05-24T03:48:17.711Z,84.00
2018-05-24T03:49:17.647Z,92.00
2018-05-24T03:50:17.587Z,104.00
2018-05-24T03:51:17.525Z,116.00
2018-05-24T03:52:17.463Z,124.00
2018-05-24T03:53:17.403Z,128.00
2018-05-24T03:54:17.340Z,136.00
2018-05-24T03:55:17.279Z,144.00
2018-05-24T03:56:17.218Z,148.00
2018-05-24T03:57:17.157Z,156.00
2018-05-24T03:58:17.095Z,160.00
2018-05-24T03:59:17.034Z,168.00
2018-05-24T04:00:16.972Z,172.00
2018-05-24T04:01:16.912Z,180.00
2018-05-24T04:02:16.850Z,188.00
2018-05-24T04:03:16.788Z,196.00
2018-05-24T04:04:16.733Z,200.00
2018-05-24T04:05:16.666Z,208.00
2018-05-24T04:06:16.604Z,212.00
2018-05-24T04:07:16.543Z,212.00
2018-05-24T04:08:16.482Z,224.00
2018-05-24T04:09:16.419Z,236.00
2018-05-24T04:10:16.362Z,252.00
2018-05-24T04:11:16.297Z,264.00
2018-05-24T04:12:16.237Z,280.00
2018-05-24T04:13:16.176Z,292.00
2018-05-24T04:14:16.112Z,312.00
2018-05-24T04:15:16.051Z,320.00
2018-05-24T04:16:15.991Z,328.00
2018-05-24T04:17:15.930Z,328.00
2018-05-24T04:18:15.871Z,332.00
2018-05-24T04:19:15.805Z,324.00
2018-05-24T04:20:15.745Z,320.00
2018-05-24T04:21:15.683Z,324.00
2018-05-24T04:22:15.625Z,336.00
2018-05-24T04:23:15.639Z,348.00
2018-05-24T04:24:15.500Z,356.00
2018-05-24T04:25:15.440Z,364.00
2018-05-24T04:26:15.382Z,376.00
2018-05-24T04:27:15.314Z,384.00
2018-05-24T04:28:15.254Z,400.00
2018-05-24T04:29:15.191Z,412.00
2018-05-24T04:30:15.135Z,432.00
2018-05-24T04:31:15.070Z,448.00
2018-05-24T04:32:15.008Z,464.00
2018-05-24T04:33:14.947Z,488.00
2018-05-24T04:34:14.886Z,508.00
2018-05-24T04:35:14.826Z,532.00
2018-05-24T04:36:14.764Z,564.00
2018-05-24T04:37:14.700Z,600.00
2018-05-24T04:38:14.639Z,636.00
2018-05-24T04:39:14.579Z,672.00
2018-05-24T04:40:14.517Z,696.00
2018-05-24T04:41:14.454Z,716.00
2018-05-24T04:42:14.394Z,732.00
2018-05-24T04:43:14.333Z,732.00
2018-05-24T04:44:14.273Z,740.00
2018-05-24T04:45:14.212Z,740.00
2018-05-24T04:46:14.149Z,744.00
2018-05-24T04:47:14.090Z,732.00
2018-05-24T04:48:14.030Z,724.00
2018-05-24T04:49:13.966Z,724.00
2018-05-24T04:50:13.905Z,736.00
2018-05-24T04:51:13.844Z,740.00
2018-05-24T04:52:13.796Z,732.00
2018-05-24T04:53:13.720Z,716.00
2018-05-24T04:54:13.660Z,712.00
2018-05-24T04:55:13.597Z,712.00
2018-05-24T04:56:13.537Z,724.00
2018-05-24T04:57:13.480Z,748.00
2018-05-24T04:58:13.412Z,780.00
2018-05-24T04:59:13.349Z,804.00
2018-05-24T05:00:13.297Z,812.00
2018-05-24T05:01:13.231Z,808.00
2018-05-24T05:02:13.170Z,792.00
2018-05-24T05:03:13.108Z,764.00
2018-05-24T05:04:13.046Z,752.00
2018-05-24T05:05:12.988Z,752.00
2018-05-24T05:06:12.927Z,772.00
2018-05-24T05:07:12.861Z,812.00
2018-05-24T05:08:12.803Z,872.00
2018-05-24T05:09:12.742Z,944.00
2018-05-24T05:10:12.681Z,996.00
2018-05-24T05:11:12.620Z,1040.00
2018-05-24T05:12:12.558Z,1088.00
2018-05-24T05:13:12.500Z,1132.00
2018-05-24T05:14:12.442Z,1168.00
2018-05-24T05:15:12.377Z,1184.00
2018-05-24T05:16:12.317Z,1212.00
2018-05-24T05:17:12.255Z,1260.00
2018-05-24T05:18:12.198Z,1308.00
2018-05-24T05:19:12.132Z,1368.00
2018-05-24T05:20:12.072Z,1428.00
2018-05-24T05:21:12.013Z,1444.00
2018-05-24T05:22:11.951Z,1400.00
2018-05-24T05:23:11.923Z,1304.00
2018-05-24T05:24:11.829Z,1212.00
2018-05-24T05:25:11.808Z,1152.00
2018-05-24T05:26:11.708Z,1128.00
2018-05-24T05:27:11.646Z,1128.00
2018-05-24T05:28:11.589Z,1164.00
2018-05-24T05:29:11.526Z,1156.00
2018-05-24T05:30:11.464Z,1136.00
2018-05-24T05:31:11.403Z,1112.00
2018-05-24T05:32:11.342Z,1100.00
2018-05-24T05:33:11.284Z,1120.00
2018-05-24T05:34:11.221Z,1152.00
2018-05-24T05:35:11.161Z,1140.00
2018-05-24T05:36:11.095Z,1140.00
2018-05-24T05:37:11.047Z,1160.00
2018-05-24T05:38:10.998Z,1200.00
2018-05-24T05:39:10.920Z,1248.00
2018-05-24T05:40:10.867Z,1284.00
2018-05-24T05:41:10.809Z,1340.00
2018-05-24T05:42:10.738Z,1396.00
2018-05-24T05:43:10.676Z,1448.00
2018-05-24T05:44:10.616Z,1480.00
2018-05-24T05:45:10.554Z,1444.00
2018-05-24T05:46:10.493Z,1384.00
2018-05-24T05:47:10.431Z,1328.00
2018-05-24T05:48:10.376Z,1320.00
2018-05-24T05:49:10.311Z,1328.00
2018-05-24T05:50:10.258Z,1352.00
2018-05-24T05:51:10.189Z,1324.00
2018-05-24T05:52:10.217Z,1348.00
2018-05-24T05:53:10.073Z,1340.00
2018-05-24T05:54:10.008Z,1292.00
2018-05-24T05:55:09.949Z,1256.00
2018-05-24T05:56:09.893Z,1236.00
2018-05-24T05:57:09.829Z,1256.00
2018-05-24T05:58:09.768Z,1232.00
2018-05-24T05:59:09.705Z,1260.00
2018-05-24T06:00:09.648Z,1388.00
2018-05-24T06:01:09.585Z,1636.00
2018-05-24T06:02:09.524Z,1880.00
2018-05-24T06:03:09.462Z,2096.00
2018-05-24T06:04:09.408Z,2288.00
2018-05-24T06:05:09.343Z,2452.00
2018-05-24T06:06:09.280Z,2516.00
2018-05-24T06:07:09.219Z,2520.00
2018-05-24T06:08:09.159Z,2468.00
2018-05-24T06:09:09.102Z,2540.00
2018-05-24T06:10:09.039Z,2704.00
2018-05-24T06:11:08.984Z,2880.00
2018-05-24T06:12:08.916Z,2912.00
2018-05-24T06:13:08.858Z,2868.00
2018-05-24T06:14:08.794Z,2668.00
2018-05-24T06:15:08.737Z,2404.00
2018-05-24T06:16:08.676Z,2200.00
2018-05-24T06:17:08.616Z,2080.00
2018-05-24T06:18:08.553Z,2076.00
2018-05-24T06:19:08.494Z,2132.00
2018-05-24T06:20:08.435Z,2224.00
2018-05-24T06:21:08.378Z,2332.00
2018-05-24T06:22:08.313Z,2428.00
2018-05-24T06:23:08.258Z,2548.00
2018-05-24T06:24:08.195Z,2760.00
2018-05-24T06:25:08.134Z,2984.00
2018-05-24T06:26:08.075Z,3132.00
2018-05-24T06:27:08.012Z,3268.00
2018-05-24T06:28:07.954Z,3320.00
2018-05-24T06:29:07.896Z,3248.00
2018-05-24T06:30:07.835Z,3136.00
2018-05-24T06:31:07.778Z,3152.00
2018-05-24T06:32:07.714Z,3024.00
2018-05-24T06:33:07.654Z,2956.00
2018-05-24T06:34:07.594Z,2896.00
2018-05-24T06:35:07.536Z,2772.00
2018-05-24T06:36:07.478Z,2784.00
2018-05-24T06:37:07.418Z,2692.00
2018-05-24T06:38:07.363Z,2884.00
2018-05-24T06:39:07.297Z,2984.00
2018-05-24T06:40:07.239Z,3056.00
2018-05-24T06:41:07.178Z,3028.00
2018-05-24T06:42:07.118Z,3016.00
2018-05-24T06:43:07.059Z,3120.00
2018-05-24T06:44:07.002Z,3184.00
2018-05-24T06:45:06.942Z,3200.00
2018-05-24T06:46:06.880Z,3032.00
2018-05-24T06:47:06.821Z,2676.00
2018-05-24T06:48:06.761Z,2268.00
2018-05-24T06:49:06.702Z,1972.00
2018-05-24T06:50:06.643Z,1808.00
2018-05-24T06:51:06.585Z,1716.00
2018-05-24T06:52:06.530Z,1668.00
2018-05-24T06:53:06.465Z,1612.00
2018-05-24T06:54:06.405Z,1564.00
2018-05-24T06:55:06.350Z,1524.00
2018-05-24T06:56:06.291Z,1492.00
2018-05-24T06:57:06.229Z,1464.00
2018-05-24T06:58:06.168Z,1448.00
2018-05-24T06:59:06.110Z,1424.00
2018-05-24T07:00:06.049Z,1396.00
2018-05-24T07:01:05.995Z,1356.00
2018-05-24T07:02:05.931Z,1320.00
2018-05-24T07:03:05.874Z,1292.00
2018-05-24T07:04:05.812Z,1264.00
2018-05-24T07:05:05.753Z,1244.00
2018-05-24T07:06:05.694Z,1236.00
2018-05-24T07:07:05.630Z,1204.00
2018-05-24T07:08:05.576Z,1176.00
2018-05-24T07:09:05.516Z,1136.00
2018-05-24T07:10:05.457Z,1108.00
2018-05-24T07:11:05.418Z,1096.00
2018-05-24T07:12:05.338Z,1104.00
2018-05-24T07:13:05.276Z,1132.00
2018-05-24T07:14:05.219Z,1172.00
2018-05-24T07:15:05.160Z,1216.00
2018-05-24T07:16:05.099Z,1292.00
2018-05-24T07:17:05.040Z,1356.00
2018-05-24T07:18:04.980Z,1408.00
2018-05-24T07:19:04.922Z,1472.00
2018-05-24T07:20:04.860Z,1544.00
2018-05-24T07:21:04.801Z,1632.00
2018-05-24T07:22:04.743Z,1720.00
2018-05-24T07:23:04.682Z,1840.00
2018-05-24T07:24:04.624Z,2020.00
2018-05-24T07:25:04.563Z,2128.00
2018-05-24T07:26:04.504Z,2036.00
2018-05-24T07:27:04.445Z,1844.00
2018-05-24T07:28:04.386Z,1752.00
2018-05-24T07:29:04.330Z,1724.00
2018-05-24T07:30:04.267Z,1664.00
2018-05-24T07:31:04.207Z,1600.00
2018-05-24T07:32:04.147Z,1548.00
2018-05-24T07:33:04.091Z,1504.00
2018-05-24T07:34:04.028Z,1496.00
2018-05-24T07:35:03.969Z,1520.00
2018-05-24T07:36:03.911Z,1572.00
2018-05-24T07:37:03.852Z,1668.00
2018-05-24T07:38:03.790Z,1844.00
2018-05-24T07:39:03.731Z,2060.00
2018-05-24T07:40:03.675Z,2312.00
2018-05-24T07:41:03.612Z,2480.00
2018-05-24T07:42:03.554Z,2584.00
2018-05-24T07:43:03.496Z,2628.00
2018-05-24T07:44:03.441Z,2604.00
2018-05-24T07:45:03.451Z,2532.00
2018-05-24T07:46:03.315Z,2432.00
2018-05-24T07:47:03.255Z,2336.00
2018-05-24T07:48:03.195Z,2252.00
2018-05-24T07:49:03.137Z,2184.00
2018-05-24T07:50:03.075Z,2140.00
2018-05-24T07:51:03.017Z,2112.00
2018-05-24T07:52:02.958Z,2096.00
2018-05-24T07:53:02.901Z,2076.00
2018-05-24T07:54:02.838Z,2040.00
2018-05-24T07:55:02.781Z,1988.00
2018-05-24T07:56:02.720Z,1916.00
2018-05-24T07:57:02.665Z,1844.00
2018-05-24T07:58:02.600Z,1792.00
2018-05-24T07:59:02.542Z,1744.00
2018-05-24T08:00:02.483Z,1704.00
2018-05-24T08:01:02.423Z,1676.00
2018-05-24T08:02:02.365Z,1656.00
2018-05-24T08:03:02.305Z,1640.00
2018-05-24T08:04:02.249Z,1620.00
2018-05-24T08:05:02.187Z,1620.00
2018-05-24T08:06:02.126Z,1628.00
2018-05-24T08:07:02.076Z,1636.00
2018-05-24T08:08:02.009Z,1656.00
2018-05-24T08:09:01.950Z,1680.00
2018-05-24T08:10:01.890Z,1680.00
2018-05-24T08:11:01.830Z,1672.00
2018-05-24T08:12:01.772Z,1688.00
2018-05-24T08:13:01.722Z,1696.00
2018-05-24T08:14:01.652Z,1688.00
2018-05-24T08:15:01.592Z,1676.00
2018-05-24T08:16:01.534Z,1660.00
2018-05-24T08:17:01.475Z,1648.00
2018-05-24T08:18:01.412Z,1636.00
2018-05-24T08:19:01.354Z,1632.00
2018-05-24T08:20:01.295Z,1616.00
2018-05-24T08:21:01.238Z,1604.00
2018-05-24T08:22:01.179Z,1600.00
2018-05-24T08:23:01.117Z,1604.00
2018-05-24T08:24:01.056Z,1624.00
2018-05-24T08:25:00.998Z,1672.00
2018-05-24T08:26:00.939Z,1756.00
2018-05-24T08:27:00.878Z,1848.00
2018-05-24T08:28:00.818Z,1924.00
2018-05-24T08:29:00.761Z,1980.00
2018-05-24T08:30:00.699Z,2032.00
2018-05-24T08:31:00.641Z,2064.00
2018-05-24T08:32:00.586Z,2076.00
2018-05-24T08:33:00.526Z,2104.00
2018-05-24T08:34:00.466Z,2112.00
2018-05-24T08:35:00.440Z,2104.00
2018-05-24T08:36:00.344Z,2092.00
2018-05-24T08:37:00.285Z,2080.00
2018-05-24T08:38:00.227Z,2068.00
2018-05-24T08:39:00.169Z,2056.00
2018-05-24T08:40:00.111Z,2048.00
2018-05-24T08:41:00.115Z,2044.00
2018-05-24T08:41:59.990Z,2056.00
2018-05-24T08:42:59.927Z,2072.00
2018-05-24T08:43:59.868Z,2088.00
2018-05-24T08:44:59.809Z,2096.00
2018-05-24T08:45:59.748Z,2088.00
2018-05-24T08:46:59.713Z,2076.00
2018-05-24T08:47:59.632Z,2044.00
2018-05-24T08:48:59.571Z,2024.00
2018-05-24T08:49:59.512Z,1940.00
2018-05-24T08:50:59.452Z,1844.00
2018-05-24T08:51:59.396Z,1740.00
2018-05-24T08:52:59.340Z,1656.00
2018-05-24T08:53:59.275Z,1584.00
2018-05-24T08:54:59.216Z,1520.00
2018-05-24T08:55:59.156Z,1436.00
2018-05-24T08:56:59.098Z,1356.00
2018-05-24T08:57:59.039Z,1280.00
2018-05-24T08:58:58.981Z,1232.00
2018-05-24T08:59:58.921Z,1208.00
2018-05-24T09:00:58.861Z,1224.00
2018-05-24T09:01:58.801Z,1252.00
2018-05-24T09:02:58.741Z,1236.00
2018-05-24T09:03:58.684Z,1200.00
2018-05-24T09:04:58.625Z,1140.00
2018-05-24T09:05:58.565Z,1120.00
2018-05-24T09:06:58.510Z,1136.00
2018-05-24T09:07:58.448Z,1160.00
2018-05-24T09:08:58.399Z,1160.00
2018-05-24T09:09:58.328Z,1164.00
2018-05-24T09:10:58.268Z,1172.00
2018-05-24T09:11:58.211Z,1176.00
2018-05-24T09:12:58.155Z,1204.00
2018-05-24T09:13:58.092Z,1200.00
2018-05-24T09:14:58.032Z,1220.00
2018-05-24T09:15:57.974Z,1304.00
2018-05-24T09:16:57.916Z,1396.00
2018-05-24T09:17:57.855Z,1484.00
2018-05-24T09:18:57.797Z,1512.00
2018-05-24T09:19:57.738Z,1496.00
2018-05-24T09:20:57.680Z,1452.00
2018-05-24T09:21:57.619Z,1380.00
2018-05-24T09:22:57.562Z,1340.00
2018-05-24T09:23:57.501Z,1356.00
2018-05-24T09:24:57.440Z,1428.00
2018-05-24T09:25:57.382Z,1516.00
2018-05-24T09:26:57.322Z,1536.00
2018-05-24T09:27:57.267Z,1564.00
2018-05-24T09:28:57.205Z,1628.00
2018-05-24T09:29:57.152Z,1688.00
2018-05-24T09:30:57.088Z,1748.00
2018-05-24T09:31:57.028Z,1800.00
2018-05-24T09:32:56.969Z,1852.00
2018-05-24T09:33:56.910Z,1876.00
2018-05-24T09:34:56.851Z,1816.00
2018-05-24T09:35:56.792Z,1772.00
2018-05-24T09:36:56.733Z,1748.00
2018-05-24T09:37:56.673Z,1720.00
2018-05-24T09:38:56.614Z,1656.00
2018-05-24T09:39:56.556Z,1604.00
2018-05-24T09:40:56.498Z,1604.00
2018-05-24T09:41:56.437Z,1624.00
2018-05-24T09:42:56.379Z,1652.00
2018-05-24T09:43:56.321Z,1644.00
2018-05-24T09:44:56.263Z,1616.00
2018-05-24T09:45:56.203Z,1640.00
2018-05-24T09:46:56.142Z,1764.00
2018-05-24T09:47:56.084Z,1900.00
2018-05-24T09:48:56.026Z,1996.00
2018-05-24T09:49:55.966Z,2100.00
2018-05-24T09:50:55.908Z,2208.00
2018-05-24T09:51:55.851Z,2284.00
2018-05-24T09:52:55.792Z,2348.00
2018-05-24T09:53:55.734Z,2364.00
2018-05-24T09:54:55.674Z,2420.00
2018-05-24T09:55:55.615Z,2532.00
2018-05-24T09:56:55.556Z,2724.00
2018-05-24T09:57:55.497Z,2768.00
2018-05-24T09:58:55.439Z,2856.00
2018-05-24T09:59:55.381Z,2908.00
2018-05-24T10:00:55.322Z,2888.00
2018-05-24T10:01:55.265Z,2848.00
2018-05-24T10:02:55.206Z,2848.00
2018-05-24T10:03:55.148Z,2904.00
2018-05-24T10:04:55.089Z,3068.00
2018-05-24T10:05:55.030Z,3240.00
2018-05-24T10:06:54.972Z,3244.00
2018-05-24T10:07:54.914Z,3200.00
2018-05-24T10:08:54.856Z,3228.00
2018-05-24T10:09:54.797Z,3300.00
2018-05-24T10:10:54.738Z,3256.00
2018-05-24T10:11:54.683Z,3204.00
2018-05-24T10:12:54.624Z,3212.00
2018-05-24T10:13:54.567Z,3336.00
2018-05-24T10:14:54.509Z,3352.00
2018-05-24T10:15:54.450Z,3392.00
2018-05-24T10:16:54.392Z,3500.00
2018-05-24T10:17:54.333Z,3480.00
2018-05-24T10:18:54.277Z,3472.00
2018-05-24T10:19:54.217Z,3404.00
2018-05-24T10:20:54.161Z,3328.00
2018-05-24T10:21:54.102Z,3232.00
2018-05-24T10:22:54.045Z,3144.00
2018-05-24T10:23:53.994Z,3112.00
2018-05-24T10:24:53.930Z,3108.00
2018-05-24T10:25:53.871Z,3040.00
2018-05-24T10:26:53.814Z,2968.00
2018-05-24T10:27:53.769Z,2996.00
2018-05-24T10:28:53.700Z,3020.00
2018-05-24T10:29:53.642Z,3028.00
2018-05-24T10:30:53.583Z,2992.00
2018-05-24T10:31:53.527Z,2860.00
2018-05-24T10:32:53.469Z,2604.00
2018-05-24T10:33:53.412Z,2408.00
2018-05-24T10:34:53.353Z,2292.00
2018-05-24T10:35:53.297Z,2180.00
2018-05-24T10:36:53.240Z,2068.00
2018-05-24T10:37:53.181Z,2012.00
2018-05-24T10:38:53.126Z,1996.00
2018-05-24T10:39:53.067Z,1848.00
2018-05-24T10:40:53.009Z,1660.00
2018-05-24T10:41:52.950Z,1504.00
2018-05-24T10:42:52.896Z,1412.00
2018-05-24T10:43:52.839Z,1316.00
2018-05-24T10:44:52.781Z,1232.00
2018-05-24T10:45:52.723Z,1124.00
2018-05-24T10:46:52.664Z,1036.00
2018-05-24T10:47:52.608Z,944.00
2018-05-24T10:48:52.597Z,844.00
2018-05-24T10:49:52.492Z,764.00
2018-05-24T10:50:52.488Z,704.00
2018-05-24T10:51:52.380Z,656.00
2018-05-24T10:52:52.320Z,628.00
2018-05-24T10:53:52.262Z,620.00
2018-05-24T10:54:52.204Z,628.00
2018-05-24T10:55:52.151Z,636.00
2018-05-24T10:56:52.089Z,648.00
2018-05-24T10:57:52.031Z,664.00
2018-05-24T10:58:51.972Z,672.00
2018-05-24T10:59:51.915Z,696.00
2018-05-24T11:00:51.859Z,716.00
2018-05-24T11:01:51.801Z,760.00
2018-05-24T11:02:51.744Z,784.00
2018-05-24T11:03:51.684Z,812.00
2018-05-24T11:04:51.625Z,844.00
2018-05-24T11:05:51.568Z,876.00
2018-05-24T11:06:51.510Z,916.00
2018-05-24T11:07:51.451Z,952.00
2018-05-24T11:08:51.394Z,968.00
2018-05-24T11:09:51.335Z,988.00
2018-05-24T11:10:51.278Z,1036.00
2018-05-24T11:11:51.225Z,1092.00
2018-05-24T11:12:51.162Z,1160.00
2018-05-24T11:13:51.103Z,1224.00
2018-05-24T11:14:51.050Z,1248.00
2018-05-24T11:15:50.985Z,1256.00
2018-05-24T11:16:50.927Z,1272.00
2018-05-24T11:17:50.871Z,1300.00
2018-05-24T11:18:50.811Z,1336.00
2018-05-24T11:19:50.753Z,1376.00
2018-05-24T11:20:50.695Z,1408.00
2018-05-24T11:21:50.638Z,1440.00
2018-05-24T11:22:50.612Z,1464.00
2018-05-24T11:23:50.520Z,1500.00
2018-05-24T11:24:50.471Z,1556.00
2018-05-24T11:25:50.401Z,1632.00
2018-05-24T11:26:50.345Z,1728.00
2018-05-24T11:27:50.288Z,1852.00
2018-05-24T11:28:50.226Z,1968.00
2018-05-24T11:29:50.170Z,2064.00
2018-05-24T11:30:50.109Z,2164.00
2018-05-24T11:31:50.091Z,2280.00
2018-05-24T11:32:49.993Z,2428.00
2018-05-24T11:33:49.934Z,2680.00
2018-05-24T11:34:49.876Z,3144.00
2018-05-24T11:35:49.818Z,3832.00
2018-05-24T11:36:49.766Z,4228.00
2018-05-24T11:37:49.704Z,4360.00
2018-05-24T11:38:49.641Z,4284.00
2018-05-24T11:39:49.581Z,4232.00
2018-05-24T11:40:49.524Z,4220.00
2018-05-24T11:41:49.466Z,4140.00
2018-05-24T11:42:49.407Z,4208.00
2018-05-24T11:43:49.352Z,4236.00
2018-05-24T11:44:49.292Z,4296.00
2018-05-24T11:45:49.231Z,4436.00
2018-05-24T11:46:49.173Z,4524.00
2018-05-24T11:47:49.125Z,4580.00
2018-05-24T11:48:49.060Z,4644.00
2018-05-24T11:49:49.004Z,4584.00
2018-05-24T11:50:48.942Z,4508.00
2018-05-24T11:51:48.964Z,4516.00
2018-05-24T11:52:48.827Z,4492.00
2018-05-24T11:53:48.767Z,4540.00
2018-05-24T11:54:48.710Z,4540.00
2018-05-24T11:55:48.653Z,4264.00
2018-05-24T11:56:48.597Z,4096.00
2018-05-24T11:57:48.536Z,4012.00
2018-05-24T11:58:48.480Z,3784.00
2018-05-24T11:59:48.422Z,3784.00
2018-05-24T12:00:48.365Z,3672.00
2018-05-24T12:01:48.337Z,3544.00
2018-05-24T12:02:48.249Z,3388.00
2018-05-24T12:03:48.193Z,3284.00
2018-05-24T12:04:48.135Z,3052.00
2018-05-24T12:05:48.075Z,2912.00
2018-05-24T12:06:48.018Z,2808.00
2018-05-24T12:07:47.962Z,2740.00
2018-05-24T12:08:47.906Z,2708.00
2018-05-24T12:09:47.879Z,2744.00
2018-05-24T12:10:47.790Z,2780.00
2018-05-24T12:11:47.733Z,2852.00
2018-05-24T12:12:47.674Z,2948.00
2018-05-24T12:13:47.618Z,2920.00
2018-05-24T12:14:47.563Z,2936.00
2018-05-24T12:15:47.504Z,2924.00
2018-05-24T12:16:47.446Z,2904.00
2018-05-24T12:17:47.387Z,2920.00
2018-05-24T12:18:47.333Z,3248.00
2018-05-24T12:19:47.274Z,3300.00
2018-05-24T12:20:47.219Z,3512.00
2018-05-24T12:21:47.157Z,3380.00
2018-05-24T12:22:47.102Z,3796.00
2018-05-24T12:23:47.068Z,3816.00
2018-05-24T12:24:46.987Z,4096.00
2018-05-24T12:25:46.933Z,4124.00
2018-05-24T12:26:46.871Z,4388.00
2018-05-24T12:27:46.816Z,4528.00